createdAt,value
2018-10-19T00:01:23.159Z,100929.14
2018-10-19T00:03:35.773Z,100933.09
2018-10-19T00:05:44.650Z,100933.95
2018-10-19T00:07:57.327Z,100933.41
2018-10-19T00:10:09.566Z,100937.36
2018-10-19T00:12:24.626Z,100941.01
2018-10-19T00:14:38.866Z,100937.63
2018-10-19T00:16:48.418Z,100938.58
2018-10-19T00:19:05.924Z,100937.83
2018-10-19T00:21:17.805Z,100929.92
2018-10-19T00:23:28.997Z,100930.02
2018-10-19T00:25:37.233Z,100936.52
2018-10-19T00:27:42.618Z,100935.66
2018-10-19T00:30:17.228Z,100938.29
2018-10-19T00:32:32.849Z,100936.60
2018-10-19T00:34:43.403Z,100937.12
2018-10-19T00:36:55.600Z,100931.39
2018-10-19T00:39:09.466Z,100936.20
2018-10-19T00:41:21.717Z,100937.06
2018-10-19T00:43:31.125Z,100938.29
2018-10-19T00:45:51.135Z,100941.27
2018-10-19T00:48:21.066Z,100933.77
2018-10-19T00:50:45.375Z,100939.41
2018-10-19T00:53:01.589Z,100941.13
2018-10-19T00:55:14.170Z,100933.67
2018-10-19T00:57:23.059Z,100939.41
2018-10-19T00:59:38.054Z,100938.23
2018-10-19T01:01:47.283Z,100936.52
2018-10-19T01:03:56.261Z,100939.15
2018-10-19T01:06:05.726Z,100935.34
2018-10-19T01:08:15.663Z,100932.30
2018-10-19T01:10:26.654Z,100930.12
2018-10-19T01:12:38.948Z,100929.47
2018-10-19T01:14:47.671Z,100927.55
2018-10-19T01:16:56.665Z,100923.95
2018-10-19T01:19:05.903Z,100929.02
2018-10-19T01:21:18.084Z,100924.52
2018-10-19T01:23:30.450Z,100919.00
2018-10-19T01:25:44.346Z,100921.92
2018-10-19T01:27:49.580Z,100919.45
2018-10-19T01:29:57.629Z,100910.43
2018-10-19T01:32:06.778Z,100908.45
2018-10-19T01:34:17.928Z,100904.75
2018-10-19T01:36:57.576Z,100901.53
2018-10-19T01:39:06.182Z,100907.91
2018-10-19T01:41:14.919Z,100906.42
2018-10-19T01:43:24.750Z,100922.63
2018-10-19T01:45:32.736Z,100919.13
2018-10-19T01:47:41.281Z,100918.67
2018-10-19T01:49:50.567Z,100913.46
2018-10-19T01:52:01.170Z,100921.50
2018-10-19T01:54:09.756Z,100918.59
2018-10-19T01:56:17.713Z,100913.84
2018-10-19T01:58:25.789Z,100921.87
2018-10-19T02:00:33.764Z,100918.83
2018-10-19T02:02:41.752Z,100921.47
2018-10-19T02:04:50.058Z,100921.47
2018-10-19T02:06:58.234Z,100921.87
2018-10-19T02:09:07.315Z,100928.77
2018-10-19T02:11:15.354Z,100925.17
2018-10-19T02:13:23.404Z,100926.95
2018-10-19T02:15:31.365Z,100928.72
2018-10-19T02:17:39.556Z,100928.27
2018-10-19T02:19:47.597Z,100927.86
2018-10-19T02:21:55.610Z,100927.41
2018-10-19T02:24:03.623Z,100924.23
2018-10-19T02:26:11.591Z,100931.30
2018-10-19T02:28:20.261Z,100927.00
2018-10-19T02:30:28.395Z,100930.59
2018-10-19T02:32:36.390Z,100926.45
2018-10-19T02:34:44.356Z,100929.73
2018-10-19T02:36:52.442Z,100925.56
2018-10-19T02:39:00.712Z,100919.99
2018-10-19T02:41:09.038Z,100923.62
2018-10-19T02:43:16.940Z,100932.37
2018-10-19T02:48:11.207Z,100927.79
2018-10-19T02:50:19.217Z,100929.88
2018-10-19T02:52:27.239Z,100930.69
2018-10-19T02:54:35.223Z,100927.10
2018-10-19T02:56:43.233Z,100930.51
2018-10-19T02:58:51.208Z,100930.86
2018-10-19T03:00:59.228Z,100929.14
2018-10-19T03:03:07.502Z,100936.77
2018-10-19T03:05:15.444Z,100937.32
2018-10-19T03:07:23.475Z,100933.16
2018-10-19T03:09:31.424Z,100938.14
2018-10-19T03:11:39.425Z,100938.37
2018-10-19T03:13:47.442Z,100949.12
2018-10-19T03:15:57.752Z,100944.03
2018-10-19T03:18:05.772Z,100938.85
2018-10-19T03:20:14.309Z,100937.45
2018-10-19T03:22:22.201Z,100942.16
2018-10-19T03:24:30.275Z,100944.27
2018-10-19T03:26:38.546Z,100941.53
2018-10-19T03:28:46.516Z,100934.88
2018-10-19T03:30:54.592Z,100942.72
2018-10-19T03:33:02.604Z,100943.62
2018-10-19T03:35:10.689Z,100944.48
2018-10-19T03:37:18.539Z,100942.39
2018-10-19T03:39:27.582Z,100945.48
2018-10-19T03:41:35.605Z,100938.95
2018-10-19T03:43:43.548Z,100936.73
2018-10-19T03:45:51.875Z,100939.27
2018-10-19T03:47:59.897Z,100940.67
2018-10-19T03:50:08.726Z,100938.91
2018-10-19T03:52:16.725Z,100942.45
2018-10-19T03:54:24.726Z,100943.35
2018-10-19T03:56:32.797Z,100947.80
2018-10-19T03:58:43.931Z,100941.23
2018-10-19T04:00:51.836Z,100945.25
2018-10-19T04:02:59.983Z,100951.02
2018-10-19T04:05:08.400Z,100943.75
2018-10-19T04:07:16.476Z,100946.16
2018-10-19T04:09:24.928Z,100945.89
2018-10-19T04:11:34.102Z,100944.75
2018-10-19T04:13:42.122Z,100944.02
2018-10-19T04:15:50.122Z,100952.85
2018-10-19T04:17:58.901Z,100946.41
2018-10-19T04:20:06.961Z,100951.30
2018-10-19T04:22:14.950Z,100949.70
2018-10-19T04:24:23.015Z,100957.31
2018-10-19T04:26:29.309Z,100959.65
2018-10-19T04:28:34.602Z,100957.19
2018-10-19T04:30:42.667Z,100962.53
2018-10-19T04:32:50.795Z,100960.41
2018-10-19T04:34:58.969Z,100960.52
2018-10-19T04:37:11.120Z,100964.13
2018-10-19T04:39:20.517Z,100954.12
2018-10-19T04:41:28.628Z,100958.19
2018-10-19T04:43:36.635Z,100959.13
2018-10-19T04:45:44.627Z,100960.56
2018-10-19T04:47:52.750Z,100965.91
2018-10-19T04:50:00.610Z,100966.48
2018-10-19T04:52:08.736Z,100964.34
2018-10-19T04:54:16.795Z,100964.80
2018-10-19T04:56:24.855Z,100966.97
2018-10-19T04:58:33.626Z,100969.55
2018-10-19T05:00:41.668Z,100968.13
2018-10-19T05:02:50.759Z,100970.25
2018-10-19T05:04:58.785Z,100970.75
2018-10-19T05:07:06.863Z,100973.45
2018-10-19T05:09:15.450Z,100974.31
2018-10-19T05:11:23.501Z,100966.11
2018-10-19T05:13:31.515Z,100969.27
2018-10-19T05:15:39.547Z,100975.02
2018-10-19T05:17:47.575Z,100972.09
2018-10-19T05:19:55.729Z,100975.21
2018-10-19T05:22:03.797Z,100981.37
2018-10-19T05:24:11.751Z,100980.58
2018-10-19T05:26:20.182Z,100987.19
2018-10-19T05:28:25.433Z,100982.84
2018-10-19T05:30:33.513Z,100992.89
2018-10-19T05:32:42.863Z,100990.27
2018-10-19T05:34:50.737Z,100986.77
2018-10-19T05:36:58.845Z,100990.30
2018-10-19T05:39:09.491Z,100986.03
2018-10-19T05:41:17.558Z,100992.23
2018-10-19T05:43:25.542Z,100997.09
2018-10-19T05:45:33.527Z,100994.52
2018-10-19T05:47:42.185Z,100998.04
2018-10-19T05:49:50.289Z,101007.34
2018-10-19T05:51:58.451Z,101011.32
2018-10-19T05:54:09.076Z,101008.84
2018-10-19T05:56:17.464Z,101015.04
2018-10-19T05:58:25.478Z,101012.98
2018-10-19T06:00:33.511Z,101018.71
2018-10-19T06:02:41.594Z,101020.52
2018-10-19T06:04:49.710Z,101023.06
2018-10-19T06:06:58.816Z,101021.34
2018-10-19T06:09:08.708Z,101013.47
2018-10-19T06:11:18.723Z,101021.86
2018-10-19T06:13:24.757Z,101024.03
2018-10-19T06:15:32.860Z,101027.52
2018-10-19T06:17:41.144Z,101022.27
2018-10-19T06:19:49.235Z,101027.08
2018-10-19T06:21:59.692Z,101037.91
2018-10-19T06:24:09.223Z,101037.02
2018-10-19T06:26:14.558Z,101040.43
2018-10-19T06:28:22.509Z,101037.80
2018-10-19T06:30:30.516Z,101033.94
2018-10-19T06:32:39.044Z,101037.88
2018-10-19T06:34:47.071Z,101039.27
2018-10-19T06:36:57.485Z,101037.65
2018-10-19T06:39:06.013Z,101034.27
2018-10-19T06:41:15.839Z,101038.73
2018-10-19T06:43:31.872Z,101048.44
2018-10-19T06:45:39.952Z,101046.27
2018-10-19T06:47:48.059Z,101043.19
2018-10-19T06:49:56.071Z,101048.02
2018-10-19T06:52:04.052Z,101050.65
2018-10-19T06:54:12.035Z,101046.27
2018-10-19T06:56:20.004Z,101043.23
2018-10-19T06:58:28.048Z,101048.48
2018-10-19T07:00:36.062Z,101050.61
2018-10-19T07:02:44.680Z,101051.33
2018-10-19T07:04:52.688Z,101050.22
2018-10-19T07:07:00.687Z,101049.58
2018-10-19T07:09:09.794Z,101060.72
2018-10-19T07:11:17.899Z,101053.11
2018-10-19T07:13:25.812Z,101062.08
2018-10-19T07:15:33.924Z,101054.08
2018-10-19T07:17:41.815Z,101058.40
2018-10-19T07:19:49.815Z,101057.91
2018-10-19T07:21:57.875Z,101050.85
2018-10-19T07:24:06.026Z,101058.58
2018-10-19T07:26:14.117Z,101058.46
2018-10-19T07:28:22.691Z,101060.08
2018-10-19T07:30:30.785Z,101059.92
2018-10-19T07:32:38.862Z,101064.11
2018-10-19T07:34:46.945Z,101069.25
2018-10-19T07:36:55.001Z,101070.00
2018-10-19T07:39:03.006Z,101071.52
2018-10-19T07:41:11.218Z,101067.75
2018-10-19T07:43:21.044Z,101068.75
2018-10-19T07:45:29.967Z,101066.28
2018-10-19T07:47:43.654Z,101074.45
2018-10-19T07:49:52.779Z,101073.02
2018-10-19T07:52:07.753Z,101073.83
2018-10-19T07:54:22.352Z,101076.63
2018-10-19T07:56:49.065Z,101082.53
2018-10-19T07:59:00.029Z,101088.86
2018-10-19T08:01:10.224Z,101089.47
2018-10-19T08:06:10.170Z,101089.08
2018-10-19T08:08:27.796Z,101086.59
2018-10-19T08:10:36.778Z,101087.20
2018-10-19T08:12:45.230Z,101083.48
2018-10-19T08:14:57.652Z,101087.67
2018-10-19T08:17:07.606Z,101084.03
2018-10-19T08:19:18.559Z,101082.45
2018-10-19T08:21:33.189Z,101087.39
2018-10-19T08:23:51.210Z,101086.22
2018-10-19T08:25:56.801Z,101087.20
2018-10-19T08:28:25.381Z,101092.52
2018-10-19T08:30:56.687Z,101096.18
2018-10-19T08:33:14.825Z,101091.98
2018-10-19T08:35:30.450Z,101083.33
2018-10-19T08:40:16.113Z,101088.05
2018-10-19T08:42:50.760Z,101085.28
2018-10-19T08:45:05.988Z,101077.52
2018-10-19T08:47:15.728Z,101082.00
2018-10-19T08:49:34.428Z,101082.15
2018-10-19T08:51:46.306Z,101082.50
2018-10-19T08:56:44.934Z,101073.17
2018-10-19T08:59:03.016Z,101076.36
2018-10-19T09:01:37.315Z,101079.59
2018-10-19T09:03:58.818Z,101077.16
2018-10-19T09:06:18.778Z,101075.97
2018-10-19T09:08:28.315Z,101088.91
2018-10-19T09:10:40.930Z,101083.76
2018-10-19T09:12:49.681Z,101081.21
2018-10-19T09:15:06.157Z,101081.34
2018-10-19T09:17:26.896Z,101086.35
2018-10-19T09:19:36.373Z,101083.80
2018-10-19T09:21:45.094Z,101080.42
2018-10-19T09:23:53.963Z,101086.14
2018-10-19T09:26:03.971Z,101078.33
2018-10-19T09:28:16.970Z,101088.06
2018-10-19T09:30:27.259Z,101086.45
2018-10-19T09:32:48.077Z,101090.53
2018-10-19T09:35:03.022Z,101087.27
2018-10-19T09:37:14.179Z,101080.14
2018-10-19T09:39:33.027Z,101085.01
2018-10-19T09:41:45.713Z,101085.18
2018-10-19T09:44:03.233Z,101090.23
2018-10-19T09:46:20.705Z,101084.72
2018-10-19T09:48:34.425Z,101084.89
2018-10-19T09:50:47.313Z,101080.16
2018-10-19T09:53:04.297Z,101075.57
2018-10-19T09:55:12.834Z,101080.16
2018-10-19T09:57:57.638Z,101078.14
2018-10-19T10:00:09.375Z,101078.70
2018-10-19T10:02:21.310Z,101079.89
2018-10-19T10:04:53.825Z,101072.25
2018-10-19T10:07:03.761Z,101076.45
2018-10-19T10:09:16.423Z,101077.16
2018-10-19T10:11:27.515Z,101075.61
2018-10-19T10:13:38.521Z,101074.50
2018-10-19T10:15:47.531Z,101066.89
2018-10-19T10:17:57.570Z,101066.19
2018-10-19T10:20:05.769Z,101064.62
2018-10-19T10:22:24.064Z,101067.56
2018-10-19T10:24:32.530Z,101067.71
2018-10-19T10:26:49.501Z,101071.91
2018-10-19T10:29:01.785Z,101072.19
2018-10-19T10:31:09.943Z,101066.65
2018-10-19T10:33:16.070Z,101070.84
2018-10-19T10:35:24.365Z,101069.19
2018-10-19T10:37:32.556Z,101071.20
2018-10-19T10:39:40.566Z,101069.62
2018-10-19T10:41:52.154Z,101064.40
2018-10-19T10:44:01.631Z,101062.28
2018-10-19T10:46:10.323Z,101061.64
2018-10-19T10:48:30.000Z,101057.87
2018-10-19T10:50:38.996Z,101048.81
2018-10-19T10:52:47.240Z,101053.49
2018-10-19T10:54:55.448Z,101052.45
2018-10-19T10:57:03.678Z,101051.05
2018-10-19T10:59:12.161Z,101048.07
2018-10-19T11:01:20.487Z,101042.97
2018-10-19T11:03:30.957Z,101045.94
2018-10-19T11:05:39.029Z,101043.96
2018-10-19T11:07:47.919Z,101041.59
2018-10-19T11:09:57.453Z,101036.61
2018-10-19T11:12:05.578Z,101028.39
2018-10-19T11:14:13.745Z,101029.92
2018-10-19T11:16:21.813Z,101029.69
2018-10-19T11:18:29.841Z,101022.91
2018-10-19T11:20:37.912Z,101025.67
2018-10-19T11:22:46.050Z,101019.25
2018-10-19T11:24:54.060Z,101017.10
2018-10-19T11:27:02.170Z,101010.28
2018-10-19T11:29:10.172Z,101022.41
2018-10-19T11:31:18.311Z,101018.55
2018-10-19T11:33:25.840Z,101011.37
2018-10-19T11:35:33.855Z,101012.34
2018-10-19T11:37:41.932Z,101009.80
2018-10-19T11:40:40.021Z,101008.66
2018-10-19T11:42:48.051Z,100999.18
2018-10-19T11:44:56.004Z,101004.02
2018-10-19T11:47:04.182Z,101001.20
2018-10-19T11:49:12.309Z,100997.41
2018-10-19T11:51:20.324Z,100999.48
2018-10-19T11:53:28.403Z,101003.48
2018-10-19T11:55:36.463Z,101002.46
2018-10-19T11:57:44.550Z,100996.95
2018-10-19T11:59:52.629Z,100993.16
2018-10-19T12:02:01.103Z,100992.13
2018-10-19T12:04:17.031Z,100993.68
2018-10-19T12:06:25.854Z,100993.78
2018-10-19T12:08:33.918Z,100980.22
2018-10-19T12:10:42.076Z,100974.82
2018-10-19T12:12:50.110Z,100980.61
2018-10-19T12:14:58.397Z,100984.31
2018-10-19T12:17:06.600Z,100980.98
2018-10-19T12:19:14.828Z,100977.17
2018-10-19T12:21:22.922Z,100975.76
2018-10-19T12:23:31.732Z,100969.50
2018-10-19T12:25:39.945Z,100971.95
2018-10-19T12:27:47.979Z,100972.63
2018-10-19T12:29:56.054Z,100967.58
2018-10-19T12:32:04.321Z,100962.06
2018-10-19T12:34:10.573Z,100959.61
2018-10-19T12:36:18.625Z,100954.94
2018-10-19T12:38:26.720Z,100962.14
2018-10-19T12:40:34.993Z,100954.47
2018-10-19T12:42:42.947Z,100960.43
2018-10-19T12:44:50.992Z,100948.94
2018-10-19T12:47:55.361Z,100963.64
2018-10-19T12:50:05.302Z,100961.25
2018-10-19T12:52:14.639Z,100956.22
2018-10-19T12:54:22.763Z,100949.02
2018-10-19T12:56:30.723Z,100943.10
2018-10-19T12:58:39.784Z,100940.83
2018-10-19T13:00:59.263Z,100945.48
2018-10-19T13:03:07.365Z,100949.17
2018-10-19T13:05:18.649Z,100944.14
2018-10-19T13:07:27.668Z,100939.47
2018-10-19T13:09:41.530Z,100938.81
2018-10-19T13:13:19.083Z,100945.15
2018-10-19T13:15:27.153Z,100934.67
2018-10-19T13:17:42.688Z,100931.23
2018-10-19T13:20:01.831Z,100927.02
2018-10-19T13:22:25.664Z,100923.70
2018-10-19T13:24:33.814Z,100931.56
2018-10-19T13:26:56.207Z,100934.88
2018-10-19T13:29:15.615Z,100929.73
2018-10-19T13:33:59.434Z,100938.70
2018-10-19T13:38:56.188Z,100936.03
2018-10-19T13:41:04.325Z,100935.81
2018-10-19T13:43:49.894Z,100928.37
2018-10-19T13:46:00.220Z,100927.32
2018-10-19T13:48:36.952Z,100927.48
2018-10-19T13:50:53.268Z,100930.30
2018-10-19T13:53:07.208Z,100931.53
2018-10-19T13:55:25.218Z,100922.22
2018-10-19T13:57:43.621Z,100924.20
2018-10-19T13:59:50.382Z,100928.67
2018-10-19T14:02:03.637Z,100926.88
2018-10-19T14:04:11.613Z,100920.59
2018-10-19T14:06:26.719Z,100922.69
2018-10-19T14:08:52.805Z,100918.47
2018-10-19T14:11:17.337Z,100917.52
2018-10-19T14:13:34.136Z,100917.89
2018-10-19T14:15:55.132Z,100910.38
2018-10-19T14:18:03.197Z,100909.67
2018-10-19T14:20:17.656Z,100914.91
2018-10-19T14:22:35.440Z,100914.43
2018-10-19T14:24:53.710Z,100915.28
2018-10-19T14:27:15.492Z,100914.43
2018-10-19T14:29:23.757Z,100916.96
2018-10-19T14:31:39.525Z,100916.01
2018-10-19T14:34:17.142Z,100914.10
2018-10-19T14:36:27.076Z,100911.06
2018-10-19T14:38:59.765Z,100909.83
2018-10-19T14:41:23.610Z,100908.40
2018-10-19T14:43:27.562Z,100902.69
2018-10-19T14:45:36.618Z,100907.55
2018-10-19T14:47:47.176Z,100903.64
2018-10-19T14:49:56.514Z,100905.36
2018-10-19T14:52:10.714Z,100906.59
2018-10-19T14:54:20.020Z,100906.21
2018-10-19T14:56:37.071Z,100907.16
2018-10-19T14:58:45.822Z,100903.30
2018-10-19T15:00:54.902Z,100912.63
2018-10-19T15:03:04.439Z,100910.78
2018-10-19T15:05:20.336Z,100910.44
2018-10-19T15:07:28.449Z,100909.67
2018-10-19T15:09:36.671Z,100912.72
2018-10-19T15:11:50.164Z,100911.77
2018-10-19T15:14:03.200Z,100915.37
2018-10-19T15:16:14.724Z,100910.16
2018-10-19T15:18:25.015Z,100912.09
2018-10-19T15:20:35.273Z,100911.23
2018-10-19T15:22:44.334Z,100913.99
2018-10-19T15:24:57.634Z,100918.47
2018-10-19T15:27:09.640Z,100919.89
2018-10-19T15:29:22.261Z,100909.72
2018-10-19T15:31:51.829Z,100916.13
2018-10-19T15:34:06.916Z,100910.42
2018-10-19T15:36:14.279Z,100905.16
2018-10-19T15:38:27.299Z,100912.42
2018-10-19T15:40:37.649Z,100917.84
2018-10-19T15:42:46.606Z,100905.23
2018-10-19T15:44:56.038Z,100909.32
2018-10-19T15:47:04.522Z,100912.55
2018-10-19T15:49:13.676Z,100912.40
2018-10-19T15:51:24.295Z,100916.48
2018-10-19T15:53:32.914Z,100920.61
2018-10-19T15:55:43.603Z,100917.28
2018-10-19T15:57:51.875Z,100912.66
2018-10-19T16:00:00.411Z,100912.88
2018-10-19T16:02:12.808Z,100909.55
2018-10-19T16:04:25.572Z,100914.62
2018-10-19T16:06:35.240Z,100917.12
2018-10-19T16:08:43.623Z,100914.27
2018-10-19T16:10:51.743Z,100915.44
2018-10-19T16:13:01.044Z,100919.64
2018-10-19T16:15:12.896Z,100923.81
2018-10-19T16:17:27.948Z,100920.61
2018-10-19T16:19:38.668Z,100930.14
2018-10-19T16:24:55.597Z,100923.91
2018-10-19T16:27:03.821Z,100927.00
2018-10-19T16:29:11.887Z,100928.48
2018-10-19T16:31:20.510Z,100929.16
2018-10-19T16:33:40.615Z,100936.11
2018-10-19T16:35:51.966Z,100935.00
2018-10-19T16:38:06.784Z,100933.98
2018-10-19T16:40:18.335Z,100944.34
2018-10-19T16:42:27.510Z,100940.00
2018-10-19T16:44:36.984Z,100943.57
2018-10-19T16:46:45.241Z,100952.31
2018-10-19T16:48:53.525Z,100953.05
2018-10-19T16:51:01.741Z,100955.87
2018-10-19T16:53:13.495Z,100960.88
2018-10-19T16:55:24.706Z,100954.88
2018-10-19T16:57:33.234Z,100956.25
2018-10-19T16:59:42.290Z,100961.09
2018-10-19T17:01:51.822Z,100965.30
2018-10-19T17:04:00.236Z,100959.81
2018-10-19T17:06:09.157Z,100967.48
2018-10-19T17:08:21.864Z,100966.55
2018-10-19T17:10:30.654Z,100972.67
2018-10-19T17:12:43.299Z,100971.41
2018-10-19T17:14:52.791Z,100974.98
2018-10-19T17:17:02.575Z,100981.55
2018-10-19T17:19:16.876Z,100985.94
2018-10-19T17:21:28.911Z,100990.75
2018-10-19T17:23:41.975Z,101000.48
2018-10-19T17:25:50.684Z,100998.30
2018-10-19T17:27:59.155Z,101000.09
2018-10-19T17:30:09.360Z,101004.07
2018-10-19T17:32:18.826Z,101002.43
2018-10-19T17:34:30.400Z,101009.77
2018-10-19T17:36:42.184Z,101003.52
2018-10-19T17:38:52.459Z,101009.42
2018-10-19T17:40:57.972Z,101016.84
2018-10-19T17:43:06.315Z,101025.67
2018-10-19T17:45:23.606Z,101026.21
2018-10-19T17:47:39.242Z,101027.81
2018-10-19T17:49:48.667Z,101027.58
2018-10-19T17:52:01.384Z,101033.35
2018-10-19T17:54:17.056Z,101034.59
2018-10-19T17:56:27.902Z,101033.97
2018-10-19T17:58:42.310Z,101033.34
2018-10-19T18:00:51.053Z,101031.80
2018-10-19T18:03:00.215Z,101033.42
2018-10-19T18:05:09.460Z,101035.91
2018-10-19T18:07:18.491Z,101038.38
2018-10-19T18:09:30.856Z,101040.00
2018-10-19T18:11:39.821Z,101049.02
2018-10-19T18:13:47.821Z,101050.58
2018-10-19T18:15:56.312Z,101049.05
2018-10-19T18:18:04.515Z,101056.41
2018-10-19T18:20:12.698Z,101056.06
2018-10-19T18:22:27.400Z,101067.42
2018-10-19T18:25:17.600Z,101070.47
2018-10-19T18:28:02.878Z,101072.23
2018-10-19T18:31:09.868Z,101079.97
2018-10-19T18:34:00.833Z,101074.04
2018-10-19T18:35:50.119Z,101070.33
2018-10-19T18:39:01.906Z,101071.36
2018-10-19T18:41:14.241Z,101068.27
2018-10-19T18:43:53.203Z,101067.56
2018-10-19T18:46:22.480Z,101063.99
2018-10-19T18:48:50.668Z,101069.92
2018-10-19T18:51:20.693Z,101066.98
2018-10-19T18:53:48.855Z,101068.11
2018-10-19T18:56:06.563Z,101071.19
2018-10-19T19:01:28.211Z,101075.05
2018-10-19T19:03:34.738Z,101077.66
2018-10-19T19:06:00.690Z,101076.73
2018-10-19T19:08:19.877Z,101081.95
2018-10-19T19:10:42.685Z,101085.70
2018-10-19T19:13:15.262Z,101085.95
2018-10-19T19:15:36.152Z,101092.03
2018-10-19T19:17:48.135Z,101099.67
2018-10-19T19:22:26.365Z,101098.56
2018-10-19T19:25:02.449Z,101109.89
2018-10-19T19:27:16.394Z,101112.89
2018-10-19T19:29:26.240Z,101118.58
2018-10-19T19:31:35.687Z,101108.36
2018-10-19T19:34:14.234Z,101112.69
2018-10-19T19:36:36.218Z,101120.15
2018-10-19T19:38:55.309Z,101118.53
2018-10-19T19:41:25.900Z,101117.86
2018-10-19T19:43:39.391Z,101119.03
2018-10-19T19:45:49.074Z,101134.39
2018-10-19T19:48:23.100Z,101133.81
2018-10-19T19:50:32.413Z,101139.70
2018-10-19T19:52:50.709Z,101145.00
2018-10-19T19:55:06.439Z,101146.10
2018-10-19T19:57:15.628Z,101141.47
2018-10-19T19:59:32.085Z,101153.46
2018-10-19T20:01:50.228Z,101151.46
2018-10-19T20:04:11.869Z,101153.02
2018-10-19T20:06:20.712Z,101148.30
2018-10-19T20:08:28.875Z,101155.84
2018-10-19T20:10:37.051Z,101154.61
2018-10-19T20:12:45.259Z,101161.34
2018-10-19T20:14:53.328Z,101171.55
2018-10-19T20:17:01.496Z,101173.05
2018-10-19T20:19:09.498Z,101178.86
2018-10-19T20:21:17.770Z,101185.57
2018-10-19T20:23:25.928Z,101185.21
2018-10-19T20:25:34.165Z,101189.28
2018-10-19T20:27:42.603Z,101188.55
2018-10-19T20:29:50.664Z,101196.09
2018-10-19T20:31:58.773Z,101192.22
2018-10-19T20:34:07.082Z,101202.34
2018-10-19T20:36:15.306Z,101197.98
2018-10-19T20:38:23.487Z,101195.76
2018-10-19T20:40:31.545Z,101197.31
2018-10-19T20:42:39.656Z,101193.06
2018-10-19T20:44:45.208Z,101193.70
2018-10-19T20:46:53.296Z,101192.17
2018-10-19T20:49:08.226Z,101190.63
2018-10-19T20:51:25.190Z,101188.67
2018-10-19T20:53:55.833Z,101188.08
2018-10-19T20:56:09.845Z,101199.30
2018-10-19T20:58:21.543Z,101209.84
2018-10-19T21:00:38.565Z,101202.63
2018-10-19T21:02:58.695Z,101203.44
2018-10-19T21:05:22.445Z,101207.28
2018-10-19T21:07:52.644Z,101206.59
2018-10-19T21:10:04.451Z,101204.13
2018-10-19T21:13:00.393Z,101201.50
2018-10-19T21:15:30.105Z,101202.00
2018-10-19T21:17:58.218Z,101200.11
2018-10-19T21:20:34.488Z,101196.02
2018-10-19T21:23:15.914Z,101198.58
2018-10-19T21:26:15.734Z,101190.84
2018-10-19T21:28:44.638Z,101198.33
2018-10-19T21:31:44.110Z,101199.81
2018-10-19T21:33:58.041Z,101203.88
2018-10-19T21:36:14.132Z,101208.48
2018-10-19T21:38:34.367Z,101204.41
2018-10-19T21:40:54.768Z,101210.48
2018-10-19T21:43:59.656Z,101206.07
2018-10-19T21:55:57.490Z,101222.81
2018-10-19T21:58:29.838Z,101227.95
2018-10-19T22:00:41.295Z,101227.68
2018-10-19T22:05:36.875Z,101228.88
2018-10-19T22:07:48.397Z,101235.52
2018-10-19T22:10:06.352Z,101229.77
2018-10-19T22:12:31.710Z,101227.52
2018-10-19T22:14:43.823Z,101220.47
2018-10-19T22:16:54.465Z,101220.80
2018-10-19T22:25:11.397Z,101211.02
2018-10-19T22:27:20.574Z,101210.45
2018-10-19T22:29:35.981Z,101216.08
2018-10-19T22:31:52.550Z,101207.78
2018-10-19T22:34:04.957Z,101204.33
2018-10-19T22:38:37.766Z,101203.66
2018-10-19T22:43:40.174Z,101209.14
2018-10-19T22:45:49.602Z,101213.94
2018-10-19T22:47:55.755Z,101219.41
2018-10-19T22:50:04.953Z,101224.59
2018-10-19T22:52:24.350Z,101220.66
2018-10-19T22:54:39.871Z,101220.04
2018-10-19T22:57:10.355Z,101214.55
2018-10-19T23:02:04.286Z,101210.32
2018-10-19T23:04:19.048Z,101214.78
2018-10-19T23:06:53.583Z,101216.61
2018-10-19T23:11:42.170Z,101215.39
2018-10-19T23:14:16.685Z,101214.21
2018-10-19T23:16:42.298Z,101209.73
2018-10-19T23:19:02.463Z,101211.29
2018-10-19T23:21:14.322Z,101218.65
2018-10-19T23:26:22.674Z,101224.00
2018-10-19T23:28:42.458Z,101229.45
2018-10-19T23:30:54.217Z,101230.34
2018-10-19T23:33:06.856Z,101236.45
2018-10-19T23:35:16.600Z,101237.61
2018-10-19T23:37:32.330Z,101233.53
2018-10-19T23:39:44.146Z,101238.62
2018-10-19T23:41:57.144Z,101234.55
2018-10-19T23:44:12.280Z,101237.17
2018-10-19T23:46:28.956Z,101242.56
2018-10-19T23:48:37.363Z,101240.09
2018-10-19T23:50:47.192Z,101239.33
2018-10-19T23:53:02.537Z,101243.37
2018-10-19T23:55:10.055Z,101249.10
2018-10-19T23:57:33.297Z,101250.52
2018-10-19T23:59:51.956Z,101248.27
